Time;durP1;ratioP1;P1;durP2;ratioP2;P2;SDS_P1;SDS_P2;PMS_P1;PMS_P2;Temp;Humidity;BMP_temperature;BMP_pressure;BME280_temperature;BME280_humidity;BME280_pressure;Samples;Min_cycle;Max_cycle;Signal;HPM_P1;HPM_P2
2022/12/01 05:00:50;;;;;;;30.15;8.30;;;3.80;99.90;;;;;;5786144;23;20266;-68
2022/12/01 05:03:17;;;;;;;13.77;8.68;;;3.70;99.90;;;;;;4962873;28;20871;-67
2022/12/01 05:05:44;;;;;;;12.35;8.77;;;3.80;99.90;;;;;;4969284;28;20572;-67
2022/12/01 05:08:11;;;;;;;18.85;10.55;;;3.70;99.90;;;;;;4972422;28;20267;-67
2022/12/01 05:10:38;;;;;;;29.38;14.65;;;3.70;99.90;;;;;;4969705;28;20730;-67
2022/12/01 05:13:05;;;;;;;19.90;12.48;;;3.70;99.90;;;;;;4954031;28;20209;-67
2022/12/01 05:15:32;;;;;;;24.40;11.55;;;3.80;99.90;;;;;;4952805;29;20261;-67
2022/12/01 05:18:00;;;;;;;29.83;13.88;;;3.80;99.90;;;;;;4952920;29;20221;-67
2022/12/01 05:23:11;;;;;;;9.95;7.53;;;3.80;99.90;;;;;;4964576;28;20705;-67
2022/12/01 05:25:38;;;;;;;22.00;11.18;;;3.80;99.90;;;;;;4962947;28;20232;-68
2022/12/01 05:28:05;;;;;;;18.13;10.50;;;3.80;99.90;;;;;;4961256;28;20201;-68
2022/12/01 05:30:32;;;;;;;15.93;9.15;;;3.80;99.90;;;;;;4963748;28;20233;-69
2022/12/01 05:33:00;;;;;;;17.60;10.38;;;3.70;99.90;;;;;;4954399;28;20206;-68
2022/12/01 05:35:26;;;;;;;22.13;12.20;;;3.70;99.90;;;;;;4958371;28;20209;-66
2022/12/01 05:37:53;;;;;;;17.73;7.10;;;3.70;99.90;;;;;;4953140;28;20222;-66
2022/12/01 05:40:20;;;;;;;17.30;8.15;;;3.70;99.90;;;;;;4971306;28;20200;-67
2022/12/01 05:42:47;;;;;;;14.70;7.47;;;3.70;99.90;;;;;;4962103;28;20209;-66
2022/12/01 05:45:13;;;;;;;17.80;8.93;;;3.70;99.90;;;;;;4959201;28;20228;-66
2022/12/01 05:47:40;;;;;;;15.48;5.78;;;3.70;99.90;;;;;;4966801;28;20201;-66
2022/12/01 05:50:09;;;;;;;14.35;8.75;;;3.60;99.90;;;;;;4971683;28;20210;-66
2022/12/01 05:52:36;;;;;;;20.92;9.98;;;3.50;99.90;;;;;;4963700;28;20205;-68
2022/12/01 05:55:04;;;;;;;16.45;11.27;;;3.50;99.90;;;;;;4962510;28;20221;-67
2022/12/01 05:57:31;;;;;;;17.58;7.80;;;3.50;99.90;;;;;;4952683;28;20233;-69
2022/12/01 05:59:58;;;;;;;17.30;8.32;;;3.60;99.90;;;;;;4953297;28;20213;-66
2022/12/01 06:02:25;;;;;;;13.48;7.85;;;3.50;99.90;;;;;;4952831;29;20244;-67
2022/12/01 06:04:52;;;;;;;15.00;9.23;;;3.50;99.90;;;;;;4952090;29;20229;-66
2022/12/01 06:07:22;;;;;;;36.38;14.25;;;3.50;99.90;;;;;;4952106;29;20208;-67
2022/12/01 06:09:48;;;;;;;24.15;12.48;;;3.50;99.90;;;;;;4960181;28;20236;-66
2022/12/01 06:12:15;;;;;;;15.05;7.80;;;3.50;99.90;;;;;;4953244;28;20237;-66
2022/12/01 06:14:42;;;;;;;16.98;9.95;;;3.50;99.90;;;;;;4958504;28;20204;-65
2022/12/01 06:17:08;;;;;;;9.77;7.75;;;3.50;99.90;;;;;;4961917;28;20291;-65
2022/12/01 06:19:35;;;;;;;12.52;6.63;;;3.50;99.90;;;;;;4959031;28;20213;-66
2022/12/01 06:22:02;;;;;;;17.10;10.93;;;3.50;99.90;;;;;;4958169;28;20229;-65
2022/12/01 06:24:30;;;;;;;23.42;10.10;;;3.50;99.90;;;;;;4967004;28;20227;-66
2022/12/01 06:26:57;;;;;;;13.75;7.60;;;3.50;99.90;;;;;;4966849;28;20202;-65
2022/12/01 06:29:23;;;;;;;24.98;9.98;;;3.50;99.90;;;;;;4961122;28;20711;-66
2022/12/01 06:31:50;;;;;;;24.38;6.15;;;3.50;99.90;;;;;;4972246;28;20228;-67
2022/12/01 06:34:16;;;;;;;24.95;8.60;;;3.40;99.90;;;;;;4965460;28;20339;-65
2022/12/01 06:36:43;;;;;;;20.17;10.95;;;3.40;99.90;;;;;;4966961;28;20221;-65
2022/12/01 06:39:10;;;;;;;11.95;8.13;;;3.40;99.90;;;;;;4953758;28;20205;-66
2022/12/01 06:41:38;;;;;;;12.43;4.95;;;3.40;99.90;;;;;;4952527;28;20232;-66
2022/12/01 06:44:05;;;;;;;15.15;7.45;;;3.40;99.90;;;;;;4952767;28;20204;-65
2022/12/01 06:46:32;;;;;;;21.15;7.63;;;3.40;99.90;;;;;;4960480;28;20212;-66
2022/12/01 06:48:59;;;;;;;22.05;7.22;;;3.30;99.90;;;;;;4955962;28;20537;-66
2022/12/01 06:51:26;;;;;;;15.48;8.88;;;3.30;99.90;;;;;;4963668;28;20224;-65
2022/12/01 06:53:54;;;;;;;20.85;9.75;;;3.30;99.90;;;;;;4963526;28;20216;-66
2022/12/01 06:56:21;;;;;;;23.02;7.57;;;3.30;99.90;;;;;;4959904;28;20302;-65
2022/12/01 06:58:50;;;;;;;10.23;7.45;;;3.30;99.90;;;;;;4966845;28;20204;-66
2022/12/01 07:01:17;;;;;;;39.33;13.35;;;3.30;99.90;;;;;;4965153;28;20284;-66
2022/12/01 07:03:47;;;;;;;13.13;7.93;;;3.30;99.90;;;;;;4955847;28;20221;-65
2022/12/01 07:06:13;;;;;;;17.48;7.90;;;3.30;99.90;;;;;;4960975;28;20255;-66
2022/12/01 07:08:40;;;;;;;18.52;9.18;;;3.30;99.90;;;;;;4963391;28;20213;-67
2022/12/01 07:11:11;;;;;;;9.43;8.68;;;3.40;99.90;;;;;;4952672;28;20244;-66
2022/12/01 07:13:38;;;;;;;16.35;6.30;;;3.40;99.90;;;;;;4965804;28;20216;-66
2022/12/01 07:16:07;;;;;;;17.27;4.68;;;3.30;99.90;;;;;;4955748;28;20205;-65
2022/12/01 07:18:35;;;;;;;16.52;9.15;;;3.30;99.90;;;;;;4965029;28;20232;-65
2022/12/01 07:21:04;;;;;;;25.48;11.70;;;3.30;99.90;;;;;;4967647;28;20231;-67
2022/12/01 07:23:31;;;;;;;10.15;8.95;;;3.30;99.90;;;;;;4956635;28;20216;-67
2022/12/01 07:25:59;;;;;;;15.10;6.20;;;3.30;99.90;;;;;;4958711;28;20220;-65
2022/12/01 07:28:25;;;;;;;13.02;8.05;;;3.30;99.90;;;;;;4967079;28;20607;-66
2022/12/01 07:30:52;;;;;;;17.73;9.50;;;3.30;99.90;;;;;;4968618;28;20232;-66
2022/12/01 07:33:20;;;;;;;8.25;7.65;;;3.30;99.90;;;;;;4953287;28;20210;-66
2022/12/01 07:35:47;;;;;;;28.35;10.05;;;3.30;99.90;;;;;;4967733;28;20799;-67
2022/12/01 07:38:13;;;;;;;11.68;6.55;;;3.40;99.90;;;;;;4972342;28;20461;-67
2022/12/01 07:40:40;;;;;;;15.68;8.70;;;3.30;99.90;;;;;;4966420;28;20228;-67
2022/12/01 07:43:07;;;;;;;10.40;6.68;;;3.40;99.90;;;;;;4964169;28;20789;-68
2022/12/01 07:45:34;;;;;;;15.23;7.88;;;3.40;99.90;;;;;;4958091;28;20221;-66
2022/12/01 07:48:01;;;;;;;20.92;6.03;;;3.40;99.90;;;;;;4957108;28;20210;-68
2022/12/01 07:50:29;;;;;;;11.32;7.05;;;3.50;99.90;;;;;;4966436;28;20208;-66
2022/12/01 07:52:56;;;;;;;9.63;6.00;;;3.50;99.90;;;;;;4971534;28;20212;-66
2022/12/01 07:55:22;;;;;;;12.05;9.02;;;3.40;99.90;;;;;;4962280;28;20570;-67
2022/12/01 07:57:49;;;;;;;19.83;9.82;;;3.40;99.90;;;;;;4966682;28;20209;-66
2022/12/01 08:00:16;;;;;;;17.40;7.82;;;3.40;99.90;;;;;;4963430;28;20615;-67
2022/12/01 08:02:43;;;;;;;20.55;9.23;;;3.30;99.90;;;;;;4955420;28;20209;-66
2022/12/01 08:05:10;;;;;;;33.97;9.55;;;3.40;99.90;;;;;;4962549;28;20301;-66
2022/12/01 08:07:38;;;;;;;16.05;8.73;;;3.40;99.90;;;;;;4956518;28;20209;-67
2022/12/01 08:10:05;;;;;;;8.98;4.22;;;3.40;99.90;;;;;;4962523;28;20216;-67
2022/12/01 08:12:32;;;;;;;14.63;8.35;;;3.40;99.90;;;;;;4965096;28;20707;-67
2022/12/01 08:14:58;;;;;;;16.27;10.52;;;3.40;99.90;;;;;;4959443;28;20566;-67
2022/12/01 08:17:25;;;;;;;2.15;2.00;;;3.30;99.90;;;;;;4964391;28;20667;-67
2022/12/01 08:19:52;;;;;;;11.27;8.02;;;3.30;99.90;;;;;;4957027;28;20213;-66
2022/12/01 08:22:18;;;;;;;10.15;7.55;;;3.30;99.90;;;;;;4954959;29;20233;-67
2022/12/01 08:24:46;;;;;;;8.18;7.78;;;3.20;99.90;;;;;;4957764;28;20268;-67
2022/12/01 08:27:13;;;;;;;8.85;7.28;;;3.20;99.90;;;;;;4954074;28;20210;-66
2022/12/01 08:29:40;;;;;;;14.77;6.25;;;3.20;99.90;;;;;;4972686;28;20212;-66
2022/12/01 08:32:07;;;;;;;17.90;6.40;;;3.20;99.90;;;;;;4956517;28;20232;-66
2022/12/01 08:34:36;;;;;;;9.35;8.48;;;3.20;99.90;;;;;;4954363;28;20704;-67
2022/12/01 08:37:02;;;;;;;6.60;6.18;;;3.20;99.90;;;;;;4962612;28;20201;-67
2022/12/01 08:39:29;;;;;;;13.32;3.85;;;3.10;99.90;;;;;;4967285;28;20291;-67
2022/12/01 08:41:57;;;;;;;5.03;4.63;;;3.10;99.90;;;;;;4963115;28;20236;-67
2022/12/01 08:44:24;;;;;;;3.35;3.15;;;3.10;99.90;;;;;;4954162;28;20213;-67
2022/12/01 08:46:50;;;;;;;6.32;5.93;;;3.10;99.90;;;;;;4965506;28;20255;-67
2022/12/01 08:49:17;;;;;;;6.78;3.25;;;3.10;99.90;;;;;;4958691;28;20295;-67
2022/12/01 08:51:44;;;;;;;8.35;5.10;;;3.10;99.90;;;;;;4967383;28;20228;-67
2022/12/01 08:54:11;;;;;;;6.78;5.03;;;3.20;99.90;;;;;;4958891;28;20231;-67
2022/12/01 08:56:40;;;;;;;11.93;5.88;;;3.20;99.90;;;;;;4953329;28;20201;-67
2022/12/01 08:59:09;;;;;;;5.18;3.33;;;3.20;99.90;;;;;;4954523;29;20304;-67
2022/12/01 09:01:50;;;;;;;12.05;6.97;;;3.20;99.90;;;;;;4953854;29;20241;-67
2022/12/01 09:04:17;;;;;;;10.45;5.60;;;3.10;99.90;;;;;;4959966;28;20279;-67
2022/12/01 09:06:46;;;;;;;8.55;5.25;;;3.20;99.90;;;;;;4961211;28;20231;-67
2022/12/01 09:09:15;;;;;;;13.05;6.63;;;3.10;99.90;;;;;;4952838;29;20217;-67
2022/12/01 09:11:43;;;;;;;5.38;4.60;;;3.10;99.90;;;;;;4952939;29;20269;-67
2022/12/01 09:14:11;;;;;;;8.27;4.45;;;3.10;99.90;;;;;;4955489;28;20240;-67
2022/12/01 09:16:38;;;;;;;8.15;7.38;;;3.00;99.90;;;;;;4953152;28;20578;-67
2022/12/01 09:19:05;;;;;;;9.48;6.03;;;3.00;99.90;;;;;;4954704;28;20217;-67
2022/12/01 09:21:34;;;;;;;5.57;5.18;;;3.00;99.90;;;;;;4968995;28;20224;-67
2022/12/01 09:24:02;;;;;;;3.05;2.40;;;2.90;99.90;;;;;;4972205;28;20220;-67
2022/12/01 09:26:29;;;;;;;4.80;2.75;;;2.90;99.90;;;;;;4971798;28;20641;-67
2022/12/01 09:28:57;;;;;;;6.38;5.90;;;2.90;99.90;;;;;;4964907;28;20238;-66
2022/12/01 09:31:25;;;;;;;6.32;4.63;;;2.90;99.90;;;;;;4960333;28;20241;-66
2022/12/01 09:33:55;;;;;;;10.93;5.93;;;2.80;99.90;;;;;;4953371;28;20216;-67
2022/12/01 09:36:21;;;;;;;9.55;7.70;;;2.80;99.90;;;;;;4952087;29;20254;-68
2022/12/01 09:38:48;;;;;;;20.00;5.93;;;2.80;99.90;;;;;;4959455;28;20216;-68
2022/12/01 09:41:18;;;;;;;10.65;5.28;;;2.80;99.90;;;;;;4965768;28;20232;-68
2022/12/01 09:43:49;;;;;;;6.07;5.57;;;2.80;99.90;;;;;;4955095;28;20229;-66
2022/12/01 09:46:20;;;;;;;6.40;5.90;;;2.80;99.90;;;;;;4956345;28;20630;-67
2022/12/01 09:48:51;;;;;;;4.50;3.55;;;2.80;99.90;;;;;;4968396;28;20208;-67
2022/12/01 09:51:19;;;;;;;6.00;5.60;;;2.80;99.90;;;;;;4952084;29;20251;-67
2022/12/01 09:53:49;;;;;;;19.50;5.07;;;2.90;99.90;;;;;;4950908;29;20214;-67
2022/12/01 09:56:20;;;;;;;8.10;4.78;;;2.90;99.90;;;;;;4957678;28;20374;-67
2022/12/01 09:58:51;;;;;;;17.55;6.25;;;2.90;99.90;;;;;;4965411;28;20308;-67
2022/12/01 10:01:19;;;;;;;10.65;7.32;;;2.90;99.90;;;;;;4958047;28;20703;-67
2022/12/01 10:03:54;;;;;;;22.75;7.38;;;2.80;99.90;;;;;;4958292;28;20714;-67
2022/12/01 10:06:26;;;;;;;9.35;5.45;;;2.70;99.90;;;;;;4956402;28;20271;-67
2022/12/01 10:09:02;;;;;;;9.05;8.13;;;2.70;99.90;;;;;;4955603;28;20218;-67
2022/12/01 10:11:33;;;;;;;8.20;4.95;;;2.70;99.90;;;;;;4957092;28;20236;-67
2022/12/01 10:14:00;;;;;;;27.35;9.13;;;2.60;99.90;;;;;;4963511;28;20211;-68
2022/12/01 10:16:33;;;;;;;14.75;8.38;;;2.60;99.90;;;;;;4960573;28;20204;-68
2022/12/01 10:19:07;;;;;;;11.18;6.57;;;2.60;99.90;;;;;;4951988;29;20613;-68
2022/12/01 10:21:48;;;;;;;18.38;4.50;;;2.70;99.90;;;;;;4952138;29;20228;-68
2022/12/01 10:24:37;;;;;;;11.07;6.00;;;2.80;99.90;;;;;;4952658;28;20272;-68
2022/12/01 10:27:17;;;;;;;6.78;5.80;;;2.70;99.90;;;;;;4951269;29;20225;-67
2022/12/01 10:29:47;;;;;;;18.88;7.88;;;2.70;99.90;;;;;;4963859;28;20409;-67
2022/12/01 10:32:18;;;;;;;15.05;7.35;;;2.70;99.90;;;;;;4952541;28;20303;-66
2022/12/01 10:34:47;;;;;;;11.88;5.15;;;2.60;99.90;;;;;;4963007;28;20216;-66
2022/12/01 10:37:18;;;;;;;12.00;6.72;;;2.70;99.90;;;;;;4970696;28;20283;-66
2022/12/01 10:39:47;;;;;;;22.00;8.60;;;2.70;99.90;;;;;;4962519;28;20215;-66
2022/12/01 10:42:23;;;;;;;12.40;4.18;;;2.70;99.90;;;;;;4967956;28;20260;-66
2022/12/01 10:44:51;;;;;;;6.53;3.53;;;2.70;99.90;;;;;;4952879;28;20205;-66
2022/12/01 10:47:20;;;;;;;6.43;5.00;;;2.80;99.90;;;;;;4956769;28;20228;-67
2022/12/01 10:49:49;;;;;;;12.57;4.80;;;2.80;99.90;;;;;;4957501;28;20609;-67
2022/12/01 10:52:33;;;;;;;8.45;5.20;;;2.80;99.90;;;;;;4959559;29;20232;-66
2022/12/01 10:55:00;;;;;;;7.88;3.55;;;2.80;99.90;;;;;;4956001;29;20208;-67
2022/12/01 10:57:29;;;;;;;20.40;6.63;;;2.80;99.90;;;;;;4961753;29;20205;-67
2022/12/01 11:00:00;;;;;;;15.13;5.55;;;2.80;99.90;;;;;;4972779;28;20216;-67
2022/12/01 11:02:28;;;;;;;15.77;4.00;;;2.80;99.90;;;;;;4972343;28;20233;-67
2022/12/01 11:04:59;;;;;;;12.48;7.45;;;2.80;99.90;;;;;;4977861;28;20209;-67
2022/12/01 11:07:29;;;;;;;7.57;7.05;;;2.90;99.90;;;;;;4953340;28;20232;-67
2022/12/01 11:10:13;;;;;;;14.70;7.68;;;2.90;99.90;;;;;;4953680;29;20300;-67
2022/12/01 11:12:41;;;;;;;8.40;7.68;;;2.80;99.90;;;;;;4956480;28;20208;-67
2022/12/01 11:15:17;;;;;;;13.77;9.80;;;2.80;99.90;;;;;;4964519;28;20288;-67
2022/12/01 11:17:45;;;;;;;11.07;7.50;;;2.80;99.90;;;;;;4966529;28;20216;-67
2022/12/01 11:20:32;;;;;;;20.05;8.95;;;2.80;99.90;;;;;;4960972;28;20564;-67
2022/12/01 11:23:25;;;;;;;16.35;6.90;;;2.80;99.90;;;;;;4970928;28;20216;-67
2022/12/01 11:26:02;;;;;;;15.43;5.60;;;2.80;99.90;;;;;;4958451;28;20674;-67
2022/12/01 11:28:30;;;;;;;23.42;6.72;;;2.80;99.90;;;;;;4955125;29;20619;-67
2022/12/01 11:30:59;;;;;;;16.10;6.80;;;2.80;99.90;;;;;;4954602;28;20234;-66
2022/12/01 11:33:28;;;;;;;7.50;4.20;;;2.80;99.90;;;;;;4960738;28;20624;-66
2022/12/01 11:35:56;;;;;;;9.63;8.70;;;2.80;99.90;;;;;;4966350;28;20204;-68
2022/12/01 11:38:30;;;;;;;11.20;4.57;;;2.80;99.90;;;;;;4957257;28;20208;-68
2022/12/01 11:40:58;;;;;;;12.20;5.07;;;2.80;99.90;;;;;;4969077;28;20236;-67
2022/12/01 11:43:28;;;;;;;2.88;2.67;;;2.80;99.90;;;;;;4962565;28;20215;-68
2022/12/01 11:45:56;;;;;;;12.07;8.48;;;2.70;99.90;;;;;;4959494;28;20223;-68
2022/12/01 11:48:25;;;;;;;6.13;3.92;;;2.70;99.90;;;;;;4963134;28;20209;-67
2022/12/01 11:51:06;;;;;;;17.58;6.03;;;2.80;99.90;;;;;;4972473;28;20225;-66
2022/12/01 11:53:35;;;;;;;20.33;9.95;;;2.80;99.90;;;;;;4962536;28;20683;-67
2022/12/01 11:56:22;;;;;;;12.43;7.75;;;2.70;99.90;;;;;;4955197;29;20221;-67
2022/12/01 11:58:50;;;;;;;5.10;4.50;;;2.80;99.90;;;;;;4957205;28;20213;-65
2022/12/01 12:01:27;;;;;;;16.08;8.23;;;2.80;99.90;;;;;;4956447;28;20700;-66
2022/12/01 12:04:04;;;;;;;17.17;9.07;;;2.80;99.90;;;;;;4958297;28;20209;-66
2022/12/01 12:06:40;;;;;;;7.05;6.40;;;2.70;99.90;;;;;;4957985;28;20232;-66
2022/12/01 12:09:20;;;;;;;10.30;7.65;;;2.80;99.90;;;;;;4963398;28;20682;-66
2022/12/01 12:11:54;;;;;;;9.90;7.63;;;2.80;99.90;;;;;;4953374;28;20262;-67
2022/12/01 12:14:38;;;;;;;17.80;3.92;;;2.80;99.90;;;;;;4970888;28;20687;-67
2022/12/01 12:17:16;;;;;;;11.90;4.53;;;2.80;99.90;;;;;;4970971;28;20960;-67
2022/12/01 12:20:00;;;;;;;15.57;5.63;;;2.80;99.90;;;;;;4973759;28;20219;-67
2022/12/01 12:22:40;;;;;;;12.80;6.13;;;2.80;99.90;;;;;;4956072;28;20585;-67
2022/12/01 12:25:21;;;;;;;16.10;7.30;;;2.80;99.90;;;;;;4963327;28;20678;-67
2022/12/01 12:27:57;;;;;;;8.82;4.38;;;2.70;99.90;;;;;;4961627;28;20220;-66
2022/12/01 12:30:29;;;;;;;9.48;5.05;;;2.80;99.90;;;;;;4966142;28;20209;-66
2022/12/01 12:33:21;;;;;;;21.25;2.22;;;2.80;99.90;;;;;;4964766;28;20232;-66
2022/12/01 12:35:57;;;;;;;12.10;4.50;;;2.80;99.90;;;;;;4958987;28;20220;-65
2022/12/01 12:38:47;;;;;;;19.02;5.47;;;2.80;99.90;;;;;;4956236;28;20212;-66
2022/12/01 12:41:22;;;;;;;8.75;8.18;;;2.70;99.90;;;;;;4953778;29;20606;-66
2022/12/01 12:43:56;;;;;;;10.15;5.90;;;2.80;99.90;;;;;;4969329;28;20205;-66
2022/12/01 12:46:35;;;;;;;7.55;4.50;;;2.80;99.90;;;;;;4969111;28;20339;-66
2022/12/01 12:49:17;;;;;;;17.98;4.43;;;2.80;99.90;;;;;;4958347;28;20298;-66
2022/12/01 12:51:49;;;;;;;19.85;2.83;;;2.80;99.90;;;;;;4967295;28;20243;-67
2022/12/01 12:54:23;;;;;;;13.82;6.63;;;2.80;99.90;;;;;;4961200;28;20201;-66
2022/12/01 12:56:55;;;;;;;9.45;3.38;;;2.80;99.90;;;;;;4961522;28;20291;-66
2022/12/01 12:59:27;;;;;;;19.75;7.15;;;2.80;99.90;;;;;;4956911;28;20205;-65
2022/12/01 13:02:01;;;;;;;14.90;4.78;;;2.80;99.90;;;;;;4965525;28;20339;-68
2022/12/01 13:04:34;;;;;;;12.63;5.47;;;2.70;99.90;;;;;;4955929;28;20202;-65
2022/12/01 13:07:05;;;;;;;16.98;4.50;;;2.70;99.90;;;;;;4976335;28;20687;-66
2022/12/01 13:09:38;;;;;;;22.25;4.22;;;2.70;99.90;;;;;;4972435;28;20215;-66
2022/12/01 13:12:09;;;;;;;19.15;5.50;;;2.70;99.90;;;;;;4968808;28;20248;-66
2022/12/01 13:14:39;;;;;;;8.88;6.43;;;2.70;99.90;;;;;;4959062;28;20204;-66
2022/12/01 13:17:14;;;;;;;9.02;4.95;;;2.80;99.90;;;;;;4960330;28;20318;-66
2022/12/01 13:19:43;;;;;;;32.55;7.85;;;2.80;99.90;;;;;;4964867;28;20220;-66
2022/12/01 13:22:13;;;;;;;7.05;3.92;;;2.80;99.90;;;;;;4965819;28;20231;-67
2022/12/01 13:24:42;;;;;;;12.43;5.10;;;2.80;99.90;;;;;;4960185;28;20201;-67
2022/12/01 13:27:16;;;;;;;17.08;8.65;;;2.80;99.90;;;;;;4964127;28;20235;-67
2022/12/01 13:29:46;;;;;;;7.05;5.00;;;2.90;99.90;;;;;;4965656;28;20217;-67
2022/12/01 13:32:27;;;;;;;6.63;3.28;;;2.90;99.90;;;;;;4961324;28;20254;-67
2022/12/01 13:34:54;;;;;;;16.95;6.35;;;2.80;99.90;;;;;;4956764;28;20228;-64
2022/12/01 13:37:26;;;;;;;5.60;3.20;;;2.80;99.90;;;;;;4958428;28;20279;-67
2022/12/01 13:39:56;;;;;;;24.80;6.93;;;2.80;99.90;;;;;;4967213;28;20197;-67
2022/12/01 13:42:25;;;;;;;9.93;5.35;;;2.80;99.90;;;;;;4963491;28;20307;-67
2022/12/01 13:44:55;;;;;;;16.23;7.03;;;2.80;99.90;;;;;;4957590;28;20200;-67
2022/12/01 13:47:38;;;;;;;11.60;5.55;;;2.80;99.90;;;;;;4959501;28;20218;-67
2022/12/01 13:50:54;;;;;;;16.23;5.47;;;2.80;99.90;;;;;;4952555;28;20245;-68
2022/12/01 13:53:29;;;;;;;6.28;3.88;;;2.90;99.90;;;;;;4965444;28;20212;-67
2022/12/01 13:56:04;;;;;;;4.88;2.58;;;2.90;99.90;;;;;;4971779;28;20196;-67
2022/12/01 13:58:49;;;;;;;10.65;4.60;;;2.90;99.90;;;;;;4951763;28;20293;-65
2022/12/01 14:01:49;;;;;;;7.57;5.15;;;2.80;99.90;;;;;;4952547;28;20272;-67
2022/12/01 14:04:30;;;;;;;19.73;3.72;;;2.80;99.90;;;;;;4874502;29;20200;-66
2022/12/01 14:07:23;;;;;;;15.82;6.47;;;2.80;99.90;;;;;;4874137;29;20235;-66
2022/12/01 14:09:52;;;;;;;10.63;9.52;;;2.70;99.90;;;;;;4930343;29;20213;-66
2022/12/01 14:12:22;;;;;;;7.78;4.80;;;2.70;99.90;;;;;;4954031;28;20225;-66
2022/12/01 14:14:53;;;;;;;5.25;3.80;;;2.70;99.90;;;;;;4952066;29;20247;-66
2022/12/01 14:17:29;;;;;;;16.92;4.82;;;2.70;99.90;;;;;;4952562;29;20225;-66
2022/12/01 14:20:05;;;;;;;15.57;6.20;;;2.70;99.90;;;;;;4952661;29;20216;-66
2022/12/01 14:22:35;;;;;;;9.95;5.80;;;2.70;99.90;;;;;;4952667;29;20251;-67
2022/12/01 14:25:04;;;;;;;8.77;5.93;;;2.70;99.90;;;;;;4951231;29;20214;-66
2022/12/01 14:27:39;;;;;;;8.85;4.60;;;2.70;99.90;;;;;;4962826;28;20229;-67
2022/12/01 14:30:44;;;;;;;8.18;7.50;;;2.70;99.90;;;;;;4972817;28;20577;-66
2022/12/01 14:33:48;;;;;;;11.02;5.00;;;2.70;99.90;;;;;;4926514;28;20607;-67
2022/12/01 14:36:25;;;;;;;4.90;4.38;;;2.70;99.90;;;;;;4963350;28;20241;-67
2022/12/01 14:38:54;;;;;;;11.52;4.45;;;2.70;99.90;;;;;;4971735;28;20200;-67
2022/12/01 14:41:23;;;;;;;7.10;6.60;;;2.70;99.90;;;;;;4960342;28;20229;-67
2022/12/01 14:44:05;;;;;;;12.73;7.13;;;2.70;99.90;;;;;;4967553;28;20205;-67
2022/12/01 14:46:40;;;;;;;21.27;7.68;;;2.70;99.90;;;;;;4962198;28;20208;-67
2022/12/01 14:49:13;;;;;;;15.30;5.13;;;2.70;99.90;;;;;;4963472;28;20214;-67
2022/12/01 14:51:45;;;;;;;5.95;5.35;;;2.70;99.90;;;;;;4959526;28;20225;-67
2022/12/01 14:54:18;;;;;;;13.23;5.00;;;2.70;99.90;;;;;;4958532;28;20292;-67
2022/12/01 14:56:47;;;;;;;23.33;6.28;;;2.70;99.90;;;;;;4966748;28;20204;-67
2022/12/01 14:59:21;;;;;;;2.67;2.35;;;2.70;99.90;;;;;;4965728;28;20212;-67
2022/12/01 15:01:50;;;;;;;17.77;5.63;;;2.70;99.90;;;;;;4960117;28;20240;-67
2022/12/01 15:04:18;;;;;;;8.82;6.22;;;2.70;99.90;;;;;;4968580;28;20208;-67
2022/12/01 15:06:45;;;;;;;20.38;6.40;;;2.70;99.90;;;;;;4973028;28;20204;-67
2022/12/01 15:09:13;;;;;;;19.92;8.13;;;2.70;99.90;;;;;;4963662;28;20304;-67
2022/12/01 15:11:51;;;;;;;12.02;7.07;;;2.70;99.90;;;;;;4975173;28;20676;-67
2022/12/01 15:14:30;;;;;;;10.77;6.25;;;2.70;99.90;;;;;;4972131;28;20200;-67
2022/12/01 15:16:57;;;;;;;8.32;4.55;;;2.70;99.90;;;;;;4969149;28;20197;-67
2022/12/01 15:19:30;;;;;;;18.45;9.15;;;2.70;99.90;;;;;;4964533;28;20216;-67
2022/12/01 15:21:58;;;;;;;17.20;3.25;;;2.70;99.90;;;;;;4960871;28;20232;-67
2022/12/01 15:24:26;;;;;;;13.27;7.07;;;2.80;99.90;;;;;;4963006;28;20197;-67
2022/12/01 15:26:55;;;;;;;4.68;2.53;;;2.80;99.90;;;;;;4953560;28;20209;-67
2022/12/01 15:29:27;;;;;;;18.42;7.18;;;2.80;99.90;;;;;;4954053;28;20225;-67
2022/12/01 15:31:55;;;;;;;13.18;7.05;;;2.80;99.90;;;;;;4964438;28;20227;-67
2022/12/01 15:34:26;;;;;;;16.08;7.00;;;2.80;99.90;;;;;;4961881;28;20202;-67
2022/12/01 15:36:54;;;;;;;20.80;8.05;;;2.80;99.90;;;;;;4959296;28;20217;-67
2022/12/01 15:39:24;;;;;;;19.92;5.80;;;2.80;99.90;;;;;;4962255;28;20213;-67
2022/12/01 15:41:52;;;;;;;10.38;6.45;;;2.80;99.90;;;;;;4958678;28;20281;-67
2022/12/01 15:44:27;;;;;;;6.97;3.65;;;2.80;99.90;;;;;;4951570;28;20656;-67
2022/12/01 15:46:55;;;;;;;6.90;4.60;;;2.80;99.90;;;;;;4966846;28;20213;-67
2022/12/01 15:49:28;;;;;;;25.40;8.05;;;2.80;99.90;;;;;;4950908;29;20217;-67
2022/12/01 15:52:04;;;;;;;9.32;5.93;;;2.80;99.90;;;;;;4952381;29;20241;-67
2022/12/01 15:54:31;;;;;;;8.18;4.68;;;2.90;99.90;;;;;;4953751;28;20204;-67
2022/12/01 15:56:59;;;;;;;16.38;7.90;;;2.90;99.90;;;;;;4964624;28;20527;-67
2022/12/01 15:59:35;;;;;;;6.35;5.18;;;2.90;99.90;;;;;;4964143;28;20552;-67
2022/12/01 16:02:11;;;;;;;6.35;5.30;;;2.90;99.90;;;;;;4962801;28;20237;-67
2022/12/01 16:04:38;;;;;;;15.15;4.88;;;2.90;99.90;;;;;;4969590;28;20204;-67
2022/12/01 16:07:07;;;;;;;18.50;6.53;;;2.80;99.90;;;;;;4972904;28;20208;-67
2022/12/01 16:09:36;;;;;;;11.20;5.25;;;2.80;99.90;;;;;;4966854;28;20568;-67
2022/12/01 16:12:04;;;;;;;6.65;6.03;;;2.80;99.90;;;;;;4953143;29;20231;-67
2022/12/01 16:14:34;;;;;;;8.88;5.60;;;2.80;99.90;;;;;;4955607;29;20212;-67
2022/12/01 16:17:01;;;;;;;10.40;5.18;;;2.80;99.90;;;;;;4955577;29;20256;-67
2022/12/01 16:19:30;;;;;;;7.15;6.47;;;2.80;99.90;;;;;;4959891;28;20305;-68
2022/12/01 16:22:01;;;;;;;6.53;5.90;;;2.80;99.90;;;;;;4956698;28;20237;-66
2022/12/01 16:24:30;;;;;;;10.88;7.03;;;2.80;99.90;;;;;;4961631;28;20527;-66
2022/12/01 16:27:00;;;;;;;13.80;7.28;;;2.80;99.90;;;;;;4972197;28;20650;-66
2022/12/01 16:29:30;;;;;;;17.98;7.53;;;2.80;99.90;;;;;;4971604;28;21699;-66
2022/12/01 16:32:10;;;;;;;13.52;6.22;;;2.90;99.90;;;;;;4958719;28;20244;-65
2022/12/01 16:34:37;;;;;;;9.18;5.00;;;2.80;99.90;;;;;;4965321;28;20208;-68
2022/12/01 16:37:03;;;;;;;3.63;3.33;;;2.80;99.90;;;;;;4964480;28;20205;-67
2022/12/01 16:39:30;;;;;;;10.43;7.90;;;2.80;99.90;;;;;;4958627;28;20217;-67
2022/12/01 16:41:59;;;;;;;14.18;7.07;;;2.80;99.90;;;;;;4962104;28;20304;-67
2022/12/01 16:44:26;;;;;;;7.03;6.35;;;2.80;99.90;;;;;;4954876;28;20285;-66
2022/12/01 16:46:53;;;;;;;18.13;7.75;;;2.80;99.90;;;;;;4970434;28;20292;-67
2022/12/01 16:49:21;;;;;;;12.57;7.65;;;2.80;99.90;;;;;;4963494;28;20229;-67
2022/12/01 16:51:47;;;;;;;17.85;8.15;;;2.90;99.90;;;;;;4974916;28;20236;-66
2022/12/01 16:54:14;;;;;;;9.90;5.20;;;2.80;99.90;;;;;;4966430;28;20237;-66
2022/12/01 16:56:41;;;;;;;20.52;6.95;;;2.80;99.90;;;;;;4954194;28;20214;-67
2022/12/01 16:59:07;;;;;;;8.63;4.13;;;2.80;99.90;;;;;;4954131;28;20209;-67
2022/12/01 17:01:34;;;;;;;20.25;8.77;;;2.90;99.90;;;;;;4954072;28;20264;-66
2022/12/01 17:04:01;;;;;;;19.33;5.22;;;2.80;99.90;;;;;;4953481;28;20743;-66
2022/12/01 17:06:29;;;;;;;25.88;7.45;;;2.90;99.90;;;;;;4966440;28;20281;-67
2022/12/01 17:08:55;;;;;;;9.40;6.55;;;2.90;99.90;;;;;;4962353;28;20575;-67
2022/12/01 17:11:22;;;;;;;7.63;5.65;;;2.90;99.90;;;;;;4965193;28;20228;-67
2022/12/01 17:13:49;;;;;;;14.27;8.30;;;2.90;99.90;;;;;;4957791;28;20213;-66
2022/12/01 17:16:15;;;;;;;7.03;5.15;;;2.90;99.90;;;;;;4961950;28;20215;-67
2022/12/01 17:18:42;;;;;;;20.17;8.63;;;2.90;99.90;;;;;;4964159;28;20209;-66
2022/12/01 17:21:10;;;;;;;9.93;6.43;;;2.90;99.90;;;;;;4955984;28;20285;-67
2022/12/01 17:23:39;;;;;;;18.75;8.13;;;2.90;99.90;;;;;;4951097;29;20576;-67
2022/12/01 17:26:11;;;;;;;14.10;8.00;;;2.90;99.90;;;;;;4952424;29;20260;-67
2022/12/01 17:28:38;;;;;;;23.48;6.22;;;2.90;99.90;;;;;;4953290;29;20297;-66
2022/12/01 17:31:06;;;;;;;5.95;3.63;;;2.90;99.90;;;;;;4952528;29;20615;-67
2022/12/01 17:33:34;;;;;;;35.95;15.25;;;2.90;99.90;;;;;;4963009;28;20220;-67
2022/12/01 17:36:01;;;;;;;7.25;6.40;;;2.90;99.90;;;;;;4953435;28;20213;-67
2022/12/01 17:38:28;;;;;;;9.23;5.72;;;2.90;99.90;;;;;;4963484;28;20205;-66
2022/12/01 17:41:04;;;;;;;18.17;8.55;;;2.90;99.90;;;;;;4953230;28;20285;-66
2022/12/01 17:43:31;;;;;;;23.02;9.98;;;2.90;99.90;;;;;;4960454;28;20735;-66
2022/12/01 17:45:58;;;;;;;15.90;7.30;;;2.90;99.90;;;;;;4957658;28;20206;-67
2022/12/01 17:48:25;;;;;;;9.85;6.75;;;2.90;99.90;;;;;;4953165;28;20245;-67
2022/12/01 17:50:52;;;;;;;27.92;9.40;;;2.90;99.90;;;;;;4961440;28;20734;-68
2022/12/01 17:53:19;;;;;;;16.50;7.57;;;2.90;99.90;;;;;;4966944;28;20214;-68
2022/12/01 17:55:45;;;;;;;17.63;5.65;;;2.90;99.90;;;;;;4971791;28;20590;-66
2022/12/01 17:58:13;;;;;;;6.63;6.13;;;2.90;99.90;;;;;;4959297;28;20236;-66
2022/12/01 18:00:40;;;;;;;12.90;7.82;;;3.00;99.90;;;;;;4967707;28;20241;-66
2022/12/01 18:03:07;;;;;;;21.10;8.05;;;3.00;99.90;;;;;;4957805;28;20196;-67
2022/12/01 18:05:34;;;;;;;19.27;5.55;;;3.00;99.90;;;;;;4967336;28;20706;-67
2022/12/01 18:08:00;;;;;;;17.85;7.90;;;2.90;99.90;;;;;;4968824;28;20738;-67
2022/12/01 18:10:27;;;;;;;8.98;7.30;;;2.90;99.90;;;;;;4966484;28;20595;-67